Marine Blue — 3ECO4 — position and weather

sailwx.info

Track history (hours):
 
Tides and Currents Weather Stations Pressure Air Temp Water Temp Dewpoint Dewpoint Depression Visibility Wind Speed Wind Dir Waves Ship Positions

Marine Blue

Last reported at 2017-Apr-30 06:30 UTC. Time now 2017-Apr-30 06:52 UTC.
Position N 34°03' E 134°59'.

Length 125 m; draft 4.9 m.

Type: Cargo ship. MMSI: 371414000.

Date/timePositionNaut miles runAvg speedWind from/ knotsBaromVisibWave heightAir tempDewpointWater temp
2017-Apr-30 06:30N 34°03' E 134°59'3 0.1
2017-Apr-29 05:30N 34°05' E 134°57'713.4
2017-Apr-29 05:00N 34°11' E 134°58'1213.7
2017-Apr-29 04:07N 34°23' E 135°01'312.9
2017-Apr-29 03:55N 34°26' E 135°02'512.5
2017-Apr-29 03:30N 34°31' E 135°05'5 9.5
2017-Apr-29 03:00N 34°35' E 135°04'1411.1
2017-Apr-29 01:42N 34°33' E 134°47'312.0
2017-Apr-29 01:29N 34°34' E 134°44'711.0
2017-Apr-29 00:53N 34°40' E 134°47'  
2017-Apr-26 02:18N 34°41' E 134°50'2 7.3
2017-Apr-26 02:00N 34°40' E 134°47'1 0.5
2017-Apr-25 23:13N 34°41' E 134°46'0 0.0
2017-Apr-25 22:49N 34°41' E 134°46'0 0.0
2017-Apr-25 22:25N 34°41' E 134°46'0 0.0
2017-Apr-25 21:13N 34°41' E 134°46'0 0.1
2017-Apr-25 20:55N 34°41' E 134°46'0 0.1
2017-Apr-25 20:13N 34°41' E 134°46'0 0.0
2017-Apr-25 19:55N 34°41' E 134°46'0 0.1
2017-Apr-25 17:43N 34°41' E 134°46'0 0.0
2017-Apr-25 02:42N 34°41' E 134°46'0 0.0
2017-Apr-25 02:12N 34°41' E 134°46'0 0.0
2017-Apr-24 23:30N 34°41' E 134°46'0 0.1
2017-Apr-24 23:00N 34°41' E 134°46'0 0.0
2017-Apr-24 22:24N 34°41' E 134°46'0 0.0
2017-Apr-24 20:24N 34°41' E 134°46'0 0.1
2017-Apr-24 20:00N 34°41' E 134°46'0 0.1
2017-Apr-24 19:00N 34°41' E 134°46'0 0.1
2017-Apr-24 18:24N 34°41' E 134°46'0 0.0
2017-Apr-24 17:54N 34°41' E 134°46'0 0.0
2017-Apr-24 15:06N 34°41' E 134°46'0 0.0
2017-Apr-24 07:18N 34°41' E 134°46'0 0.1
2017-Apr-24 07:00N 34°41' E 134°46'0 0.1
2017-Apr-24 06:24N 34°41' E 134°46'0 0.0
2017-Apr-24 06:00N 34°41' E 134°46'0 0.0
2017-Apr-24 05:30N 34°41' E 134°46'0 0.1
2017-Apr-24 05:00N 34°41' E 134°46'4 7.4
2017-Apr-24 04:29N 34°39' E 134°50'4 9.3
2017-Apr-24 04:00N 34°37' E 134°55'5 9.6
2017-Apr-24 03:28N 34°37' E 135°01'4 8.8
2017-Apr-24 03:00N 34°36' E 135°06'2 4.7
2017-Apr-24 02:30N 34°34' E 135°08'5 9.7
2017-Apr-24 01:58N 34°29' E 135°05'611.3
2017-Apr-24 01:29N 34°24' E 135°02'811.3
2017-Apr-24 00:47N 34°17' E 134°59'311.5
2017-Apr-24 00:30N 34°13' E 134°59'611.8
2017-Apr-23 23:58N 34°07' E 134°59'511.9
2017-Apr-23 23:30N 34°02' E 134°58'  
Track history (hours):
 
Tides and Currents Weather Stations Pressure Air Temp Water Temp Dewpoint Dewpoint Depression Visibility Wind Speed Wind Dir Waves Ship Positions

Marine Blue

Last reported at 2017-Apr-30 06:30 UTC. Time now 2017-Apr-30 06:52 UTC.
Position N 34°03' E 134°59'.

Length 125 m; draft 4.9 m.

Type: Cargo ship. MMSI: 371414000.

Date/timePositionNaut miles runAvg speedWind from/ knotsBaromVisibWave heightAir tempDewpointWater temp
2017-Apr-30 06:30N 34°03' E 134°59'3 0.1
2017-Apr-29 05:30N 34°05' E 134°57'713.4
2017-Apr-29 05:00N 34°11' E 134°58'1213.7
2017-Apr-29 04:07N 34°23' E 135°01'312.9
2017-Apr-29 03:55N 34°26' E 135°02'512.5
2017-Apr-29 03:30N 34°31' E 135°05'5 9.5
2017-Apr-29 03:00N 34°35' E 135°04'1411.1
2017-Apr-29 01:42N 34°33' E 134°47'312.0
2017-Apr-29 01:29N 34°34' E 134°44'711.0
2017-Apr-29 00:53N 34°40' E 134°47'  
2017-Apr-26 02:18N 34°41' E 134°50'2 7.3
2017-Apr-26 02:00N 34°40' E 134°47'1 0.5
2017-Apr-25 23:13N 34°41' E 134°46'0 0.0
2017-Apr-25 22:49N 34°41' E 134°46'0 0.0
2017-Apr-25 22:25N 34°41' E 134°46'0 0.0
2017-Apr-25 21:13N 34°41' E 134°46'0 0.1
2017-Apr-25 20:55N 34°41' E 134°46'0 0.1
2017-Apr-25 20:13N 34°41' E 134°46'0 0.0
2017-Apr-25 19:55N 34°41' E 134°46'0 0.1
2017-Apr-25 17:43N 34°41' E 134°46'0 0.0
2017-Apr-25 02:42N 34°41' E 134°46'0 0.0
2017-Apr-25 02:12N 34°41' E 134°46'0 0.0
2017-Apr-24 23:30N 34°41' E 134°46'0 0.1
2017-Apr-24 23:00N 34°41' E 134°46'0 0.0
2017-Apr-24 22:24N 34°41' E 134°46'0 0.0
2017-Apr-24 20:24N 34°41' E 134°46'0 0.1
2017-Apr-24 20:00N 34°41' E 134°46'0 0.1
2017-Apr-24 19:00N 34°41' E 134°46'0 0.1
2017-Apr-24 18:24N 34°41' E 134°46'0 0.0
2017-Apr-24 17:54N 34°41' E 134°46'0 0.0
2017-Apr-24 15:06N 34°41' E 134°46'0 0.0
2017-Apr-24 07:18N 34°41' E 134°46'0 0.1
2017-Apr-24 07:00N 34°41' E 134°46'0 0.1
2017-Apr-24 06:24N 34°41' E 134°46'0 0.0
2017-Apr-24 06:00N 34°41' E 134°46'0 0.0
2017-Apr-24 05:30N 34°41' E 134°46'0 0.1
2017-Apr-24 05:00N 34°41' E 134°46'4 7.4
2017-Apr-24 04:29N 34°39' E 134°50'4 9.3
2017-Apr-24 04:00N 34°37' E 134°55'5 9.6
2017-Apr-24 03:28N 34°37' E 135°01'4 8.8
2017-Apr-24 03:00N 34°36' E 135°06'2 4.7
2017-Apr-24 02:30N 34°34' E 135°08'5 9.7
2017-Apr-24 01:58N 34°29' E 135°05'611.3
2017-Apr-24 01:29N 34°24' E 135°02'811.3
2017-Apr-24 00:47N 34°17' E 134°59'311.5
2017-Apr-24 00:30N 34°13' E 134°59'611.8
2017-Apr-23 23:58N 34°07' E 134°59'511.9
2017-Apr-23 23:30N 34°02' E 134°58'  

Dump ship's entire track history